createdAt,value
2023-05-09T00:02:06.357Z,11.07
2023-05-09T00:04:34.177Z,10.85
2023-05-09T00:07:02.651Z,10.35
2023-05-09T00:09:29.598Z,9.60
2023-05-09T00:11:56.561Z,8.75
2023-05-09T00:14:24.894Z,5.72
2023-05-09T00:16:52.851Z,4.63
2023-05-09T00:19:20.243Z,4.18
2023-05-09T00:21:47.328Z,3.78
2023-05-09T00:24:15.767Z,3.45
2023-05-09T00:26:42.788Z,3.60
2023-05-09T00:29:10.009Z,3.80
2023-05-09T00:31:37.116Z,3.40
2023-05-09T00:34:04.113Z,2.97
2023-05-09T00:36:32.395Z,2.72
2023-05-09T00:38:59.320Z,2.40
2023-05-09T00:41:27.822Z,2.60
2023-05-09T00:43:54.971Z,2.72
2023-05-09T00:46:22.611Z,3.08
2023-05-09T00:48:49.913Z,3.10
2023-05-09T00:51:17.569Z,3.50
2023-05-09T00:53:44.792Z,3.20
2023-05-09T00:56:12.687Z,4.05
2023-05-09T00:58:41.252Z,4.15
2023-05-09T01:01:08.463Z,4.55
2023-05-09T01:03:36.533Z,3.85
2023-05-09T01:06:09.728Z,4.03
2023-05-09T01:08:45.443Z,4.95
2023-05-09T01:11:21.288Z,5.72
2023-05-09T01:14:06.203Z,5.30
2023-05-09T01:16:39.427Z,5.38
2023-05-09T01:19:27.436Z,5.60
2023-05-09T01:21:57.160Z,5.65
2023-05-09T01:24:52.756Z,6.05
2023-05-09T01:27:23.431Z,6.15
2023-05-09T01:29:57.828Z,6.18
2023-05-09T01:32:27.435Z,6.27
2023-05-09T01:34:56.785Z,6.03
2023-05-09T01:37:30.485Z,6.28
2023-05-09T01:40:00.429Z,6.35
2023-05-09T01:42:31.180Z,6.75
2023-05-09T01:45:00.164Z,6.80
2023-05-09T01:47:27.986Z,6.97
2023-05-09T01:49:56.408Z,7.40
2023-05-09T01:52:25.646Z,6.85
2023-05-09T01:54:53.804Z,6.45
2023-05-09T01:57:21.908Z,6.65
2023-05-09T01:59:49.398Z,5.80
2023-05-09T02:02:18.350Z,3.90
2023-05-09T02:04:46.516Z,3.63
2023-05-09T02:07:14.116Z,3.42
2023-05-09T02:09:41.385Z,3.40
2023-05-09T02:12:08.396Z,4.28
2023-05-09T02:14:35.731Z,3.78
2023-05-09T02:17:07.045Z,4.40
2023-05-09T02:19:36.158Z,4.47
2023-05-09T02:22:05.003Z,4.30
2023-05-09T02:24:33.908Z,4.40
2023-05-09T02:27:02.760Z,4.55
2023-05-09T02:29:43.697Z,4.57
2023-05-09T02:32:15.473Z,4.15
2023-05-09T02:34:46.441Z,4.10
2023-05-09T02:37:13.959Z,4.53
2023-05-09T02:39:41.184Z,4.32
2023-05-09T02:42:09.664Z,4.53
2023-05-09T02:44:37.249Z,4.82
2023-05-09T02:47:05.213Z,4.35
2023-05-09T02:49:32.831Z,4.00
2023-05-09T02:52:02.945Z,4.55
2023-05-09T02:54:30.172Z,3.83
2023-05-09T02:56:57.198Z,5.13
2023-05-09T02:59:27.524Z,4.88
2023-05-09T03:01:55.802Z,4.47
2023-05-09T03:04:23.077Z,4.20
2023-05-09T03:06:50.571Z,4.18
2023-05-09T03:09:19.001Z,4.13
2023-05-09T03:11:46.123Z,4.57
2023-05-09T03:14:14.894Z,4.32
2023-05-09T03:16:42.236Z,4.78
2023-05-09T03:19:19.465Z,4.72
2023-05-09T03:21:46.377Z,5.18
2023-05-09T03:24:13.674Z,5.50
2023-05-09T03:26:41.992Z,6.18
2023-05-09T03:29:09.514Z,5.75
2023-05-09T03:31:38.392Z,5.40
2023-05-09T03:34:05.474Z,6.88
2023-05-09T03:36:33.114Z,7.93
2023-05-09T03:39:01.198Z,10.52
2023-05-09T03:41:28.507Z,6.07
2023-05-09T03:43:57.993Z,6.50
2023-05-09T03:46:25.199Z,5.63
2023-05-09T03:48:52.651Z,6.03
2023-05-09T03:51:20.697Z,6.72
2023-05-09T03:53:48.989Z,7.22
2023-05-09T03:56:16.766Z,7.45
2023-05-09T03:58:49.908Z,7.55
2023-05-09T04:01:18.419Z,8.25
2023-05-09T04:03:46.432Z,8.30
2023-05-09T04:06:15.222Z,7.72
2023-05-09T04:08:44.352Z,8.35
2023-05-09T04:11:11.411Z,8.50
2023-05-09T04:13:41.644Z,9.05
2023-05-09T04:16:23.093Z,8.60
2023-05-09T04:18:50.135Z,8.48
2023-05-09T04:21:17.165Z,8.68
2023-05-09T04:23:47.558Z,9.02
2023-05-09T04:26:18.032Z,9.25
2023-05-09T04:28:48.028Z,7.97
2023-05-09T04:31:16.626Z,8.88
2023-05-09T04:33:48.812Z,9.05
2023-05-09T04:36:15.843Z,9.82
2023-05-09T04:38:42.882Z,12.23
2023-05-09T04:41:14.092Z,13.25
2023-05-09T04:43:41.604Z,14.50
2023-05-09T04:46:08.693Z,13.65
2023-05-09T04:48:37.685Z,13.43
2023-05-09T04:51:06.171Z,12.95
2023-05-09T04:53:34.398Z,10.07
2023-05-09T04:56:01.573Z,10.15
2023-05-09T04:58:29.373Z,10.38
2023-05-09T05:00:59.828Z,9.43
2023-05-09T05:03:27.252Z,9.57
2023-05-09T05:05:57.565Z,8.63
2023-05-09T05:08:26.137Z,9.10
2023-05-09T05:10:53.719Z,7.80
2023-05-09T05:13:21.625Z,9.02
2023-05-09T05:15:52.787Z,8.43
2023-05-09T05:18:21.137Z,9.80
2023-05-09T05:20:48.498Z,9.38
2023-05-09T05:23:15.654Z,9.20
2023-05-09T05:25:44.257Z,8.43
2023-05-09T05:28:12.830Z,8.60
2023-05-09T05:30:40.841Z,8.88
2023-05-09T05:33:08.389Z,9.20
2023-05-09T05:35:35.624Z,9.10
2023-05-09T05:38:03.269Z,8.80
2023-05-09T05:40:30.166Z,9.95
2023-05-09T05:43:02.079Z,7.88
2023-05-09T05:45:33.996Z,8.75
2023-05-09T05:48:04.072Z,8.98
2023-05-09T05:50:32.160Z,8.45
2023-05-09T05:52:59.817Z,8.15
2023-05-09T05:55:27.094Z,8.63
2023-05-09T05:57:54.268Z,9.00
2023-05-09T06:00:23.046Z,8.50
2023-05-09T06:02:56.850Z,8.23
2023-05-09T06:05:29.275Z,8.13
2023-05-09T06:07:56.246Z,8.32
2023-05-09T06:10:23.200Z,8.32
2023-05-09T06:12:50.188Z,9.10
2023-05-09T06:15:18.064Z,8.40
2023-05-09T06:17:49.816Z,8.30
2023-05-09T06:20:16.954Z,7.68
2023-05-09T06:22:43.971Z,8.45
2023-05-09T06:25:11.250Z,7.93
2023-05-09T06:27:38.458Z,8.63
2023-05-09T06:30:24.011Z,8.50
2023-05-09T06:32:54.613Z,8.52
2023-05-09T06:35:22.136Z,8.88
2023-05-09T06:37:49.385Z,8.02
2023-05-09T06:40:17.271Z,7.70
2023-05-09T06:42:44.822Z,7.60
2023-05-09T06:45:12.135Z,7.50
2023-05-09T06:47:39.260Z,8.43
2023-05-09T06:50:09.037Z,8.00
2023-05-09T06:52:36.045Z,9.15
2023-05-09T06:55:03.128Z,9.07
2023-05-09T06:57:30.323Z,9.25
2023-05-09T06:59:57.386Z,9.98
2023-05-09T07:02:27.508Z,10.07
2023-05-09T07:04:54.616Z,9.55
2023-05-09T07:07:23.089Z,10.77
2023-05-09T07:09:52.919Z,10.38
2023-05-09T07:12:22.376Z,9.13
2023-05-09T07:14:49.313Z,8.18
2023-05-09T07:17:23.426Z,9.73
2023-05-09T07:19:51.123Z,9.68
2023-05-09T07:22:18.080Z,10.23
2023-05-09T07:24:46.575Z,9.20
2023-05-09T07:27:13.581Z,9.40
2023-05-09T07:29:40.633Z,9.45
2023-05-09T07:32:07.947Z,8.43
2023-05-09T07:34:36.233Z,8.60
2023-05-09T07:37:03.284Z,8.35
2023-05-09T07:39:30.375Z,7.93
2023-05-09T07:41:58.675Z,8.18
2023-05-09T07:44:25.818Z,8.18
2023-05-09T07:46:55.403Z,9.38
2023-05-09T07:49:22.567Z,14.45
2023-05-09T07:51:49.486Z,9.90
2023-05-09T07:54:16.379Z,9.82
2023-05-09T07:56:43.586Z,9.88
2023-05-09T07:59:12.400Z,9.95
2023-05-09T08:01:39.428Z,9.73
2023-05-09T08:04:06.959Z,9.32
2023-05-09T08:06:33.912Z,9.38
2023-05-09T08:09:01.042Z,10.43
2023-05-09T08:11:28.381Z,9.95
2023-05-09T08:13:55.319Z,22.70
2023-05-09T08:16:23.667Z,10.90
2023-05-09T08:18:50.873Z,12.38
2023-05-09T08:21:19.199Z,10.05
2023-05-09T08:23:48.005Z,9.82
2023-05-09T08:26:15.008Z,8.30
2023-05-09T08:28:41.916Z,8.77
2023-05-09T08:31:08.959Z,8.77
2023-05-09T08:33:37.783Z,8.43
2023-05-09T08:36:06.727Z,7.18
2023-05-09T08:38:33.673Z,8.10
2023-05-09T08:41:01.211Z,8.13
2023-05-09T08:43:28.870Z,7.68
2023-05-09T08:45:58.906Z,8.05
2023-05-09T08:48:27.163Z,7.00
2023-05-09T08:50:56.185Z,6.60
2023-05-09T08:53:23.452Z,7.07
2023-05-09T08:55:51.339Z,6.13
2023-05-09T08:58:19.789Z,6.65
2023-05-09T09:00:50.586Z,6.60
2023-05-09T09:03:20.744Z,5.43
2023-05-09T09:05:51.807Z,5.72
2023-05-09T09:08:21.047Z,5.88
2023-05-09T09:10:48.386Z,6.63
2023-05-09T09:13:17.532Z,7.18
2023-05-09T09:15:46.446Z,7.85
2023-05-09T09:18:22.469Z,7.40
2023-05-09T09:20:53.323Z,6.72
2023-05-09T09:23:26.064Z,6.50
2023-05-09T09:26:01.846Z,7.10
2023-05-09T09:28:29.462Z,7.32
2023-05-09T09:30:56.777Z,6.65
2023-05-09T09:33:25.773Z,6.40
2023-05-09T09:35:56.339Z,7.55
2023-05-09T09:38:26.827Z,6.93
2023-05-09T09:40:55.815Z,8.25
2023-05-09T09:43:28.344Z,8.32
2023-05-09T09:45:56.011Z,7.95
2023-05-09T09:48:26.959Z,5.78
2023-05-09T09:50:54.932Z,7.03
2023-05-09T09:53:21.972Z,6.57
2023-05-09T09:55:54.000Z,5.85
2023-05-09T09:58:27.151Z,7.00
2023-05-09T10:01:06.420Z,5.60
2023-05-09T10:03:37.818Z,8.10
2023-05-09T10:06:05.576Z,7.18
2023-05-09T10:08:32.500Z,5.15
2023-05-09T10:11:01.757Z,8.63
2023-05-09T10:13:28.965Z,6.70
2023-05-09T10:15:58.262Z,6.15
2023-05-09T10:18:34.039Z,6.57
2023-05-09T10:21:05.144Z,5.60
2023-05-09T10:23:36.997Z,6.20
2023-05-09T10:26:15.064Z,5.65
2023-05-09T10:28:46.391Z,5.45
2023-05-09T10:31:19.278Z,5.82
2023-05-09T10:33:48.417Z,6.20
2023-05-09T10:36:18.041Z,5.40
2023-05-09T10:38:46.679Z,6.13
2023-05-09T10:41:16.583Z,6.78
2023-05-09T10:43:45.221Z,7.90
2023-05-09T10:46:13.221Z,6.70
2023-05-09T10:48:41.679Z,6.35
2023-05-09T10:51:09.586Z,5.28
2023-05-09T10:53:44.285Z,6.68
2023-05-09T10:56:24.748Z,5.63
2023-05-09T10:58:51.783Z,5.82
2023-05-09T11:01:30.830Z,5.90
2023-05-09T11:04:00.030Z,6.20
2023-05-09T11:06:49.414Z,6.65
2023-05-09T11:09:33.404Z,6.68
2023-05-09T11:12:12.593Z,5.90
2023-05-09T11:14:42.379Z,6.18
2023-05-09T11:17:10.568Z,5.90
2023-05-09T11:19:55.362Z,6.40
2023-05-09T11:22:24.674Z,5.67
2023-05-09T11:24:54.029Z,4.93
2023-05-09T11:27:23.668Z,5.85
2023-05-09T11:29:52.205Z,5.43
2023-05-09T11:32:20.921Z,5.13
2023-05-09T11:34:48.277Z,4.60
2023-05-09T11:37:17.977Z,5.45
2023-05-09T11:39:58.872Z,4.75
2023-05-09T11:42:28.233Z,4.90
2023-05-09T11:44:56.781Z,5.22
2023-05-09T11:47:24.403Z,5.50
2023-05-09T11:49:51.790Z,5.57
2023-05-09T11:52:19.683Z,5.75
2023-05-09T11:54:47.019Z,5.03
2023-05-09T11:57:17.442Z,5.40
2023-05-09T11:59:46.264Z,5.50
2023-05-09T12:02:13.628Z,4.90
2023-05-09T12:04:40.785Z,5.20
2023-05-09T12:07:08.217Z,5.10
2023-05-09T12:09:38.968Z,5.03
2023-05-09T12:12:11.588Z,5.53
2023-05-09T12:14:39.902Z,5.60
2023-05-09T12:17:08.804Z,5.88
2023-05-09T12:19:36.797Z,6.13
2023-05-09T12:22:06.756Z,5.10
2023-05-09T12:24:36.341Z,5.20
2023-05-09T12:27:04.873Z,5.32
2023-05-09T12:29:32.241Z,4.68
2023-05-09T12:32:00.232Z,4.78
2023-05-09T12:34:29.265Z,4.40
2023-05-09T12:36:58.480Z,4.85
2023-05-09T12:39:26.745Z,4.70
2023-05-09T12:42:01.579Z,4.55
2023-05-09T12:44:29.855Z,5.30
2023-05-09T12:46:58.306Z,4.32
2023-05-09T12:49:25.671Z,4.80
2023-05-09T12:51:55.605Z,4.82
2023-05-09T12:54:24.158Z,4.85
2023-05-09T12:56:53.878Z,4.30
2023-05-09T12:59:25.311Z,3.53
2023-05-09T13:01:54.627Z,4.13
2023-05-09T13:04:24.737Z,4.28
2023-05-09T13:06:55.633Z,3.70
2023-05-09T13:09:23.966Z,3.60
2023-05-09T13:11:52.158Z,4.03
2023-05-09T13:14:20.489Z,3.70
2023-05-09T13:16:47.766Z,4.03
2023-05-09T13:19:14.894Z,3.63
2023-05-09T13:21:44.506Z,3.50
2023-05-09T13:24:12.904Z,4.00
2023-05-09T13:26:39.986Z,3.50
2023-05-09T13:29:06.874Z,3.30
2023-05-09T13:31:33.949Z,4.00
2023-05-09T13:34:00.990Z,3.53
2023-05-09T13:36:27.947Z,4.13
2023-05-09T13:38:54.871Z,3.65
2023-05-09T13:41:24.035Z,3.97
2023-05-09T13:43:51.177Z,3.42
2023-05-09T13:46:18.284Z,3.47
2023-05-09T13:48:45.506Z,4.18
2023-05-09T13:51:12.546Z,4.45
2023-05-09T13:53:39.568Z,4.43
2023-05-09T13:56:07.638Z,4.50
2023-05-09T13:58:36.400Z,4.43
2023-05-09T14:01:03.535Z,5.25
2023-05-09T14:03:31.776Z,5.05
2023-05-09T14:05:59.698Z,4.88
2023-05-09T14:08:27.061Z,4.45
2023-05-09T14:10:54.850Z,4.47
2023-05-09T14:13:22.035Z,5.22
2023-05-09T14:15:50.669Z,5.22
2023-05-09T14:18:20.839Z,4.40
2023-05-09T14:20:48.398Z,4.85
2023-05-09T14:23:15.404Z,4.72
2023-05-09T14:25:42.936Z,5.07
2023-05-09T14:28:10.009Z,4.43
2023-05-09T14:30:37.073Z,5.43
2023-05-09T14:33:05.711Z,5.38
2023-05-09T14:35:34.198Z,5.07
2023-05-09T14:38:01.642Z,5.20
2023-05-09T14:40:32.176Z,5.03
2023-05-09T14:43:01.966Z,4.97
2023-05-09T14:45:29.575Z,4.93
2023-05-09T14:47:56.787Z,5.20
2023-05-09T14:50:25.809Z,4.90
2023-05-09T14:52:52.852Z,4.68
2023-05-09T14:55:20.147Z,4.40
2023-05-09T14:57:47.117Z,4.88
2023-05-09T15:00:21.355Z,17.65
2023-05-09T15:02:49.134Z,9.25
2023-05-09T15:05:16.836Z,8.50
2023-05-09T15:07:45.678Z,7.13
2023-05-09T15:10:13.393Z,6.18
2023-05-09T15:12:40.591Z,3.38
2023-05-09T15:15:18.184Z,5.40
2023-05-09T15:17:46.274Z,5.13
2023-05-09T15:20:18.266Z,3.92
2023-05-09T15:22:48.125Z,4.43
2023-05-09T15:25:15.300Z,3.90
2023-05-09T15:27:42.648Z,4.00
2023-05-09T15:30:10.588Z,3.78
2023-05-09T15:32:39.838Z,3.97
2023-05-09T15:35:08.320Z,3.92
2023-05-09T15:37:35.901Z,3.42
2023-05-09T15:40:05.252Z,3.22
2023-05-09T15:42:32.303Z,2.65
2023-05-09T15:44:59.325Z,3.38
2023-05-09T15:47:26.320Z,3.63
2023-05-09T15:49:53.485Z,4.00
2023-05-09T15:52:20.516Z,3.83
2023-05-09T15:54:47.455Z,3.50
2023-05-09T15:57:16.852Z,3.38
2023-05-09T15:59:44.009Z,3.40
2023-05-09T16:02:12.326Z,3.22
2023-05-09T16:04:43.952Z,3.60
2023-05-09T16:07:11.401Z,3.13
2023-05-09T16:09:38.384Z,3.40
2023-05-09T16:12:05.807Z,3.78
2023-05-09T16:14:34.563Z,5.03
2023-05-09T16:17:04.046Z,3.78
2023-05-09T16:19:33.203Z,5.40
2023-05-09T16:22:01.953Z,6.32
2023-05-09T16:24:29.072Z,4.70
2023-05-09T16:26:56.038Z,5.55
2023-05-09T16:29:23.190Z,4.18
2023-05-09T16:31:51.601Z,3.25
2023-05-09T16:34:18.659Z,3.15
2023-05-09T16:36:46.467Z,2.80
2023-05-09T16:39:13.581Z,3.03
2023-05-09T16:41:40.567Z,3.30
2023-05-09T16:44:07.510Z,4.18
2023-05-09T16:46:34.682Z,10.77
2023-05-09T16:49:03.083Z,12.25
2023-05-09T16:51:30.635Z,7.00
2023-05-09T16:53:57.672Z,6.03
2023-05-09T16:56:24.596Z,6.47
2023-05-09T16:58:51.880Z,6.15
2023-05-09T17:01:18.871Z,8.18
2023-05-09T17:03:45.949Z,7.40
2023-05-09T17:06:14.336Z,8.13
2023-05-09T17:08:43.098Z,10.43
2023-05-09T17:11:10.160Z,10.93
2023-05-09T17:13:37.135Z,11.90
2023-05-09T17:16:04.647Z,11.90
2023-05-09T17:18:37.588Z,9.77
2023-05-09T17:21:05.379Z,9.35
2023-05-09T17:23:33.749Z,8.25
2023-05-09T17:26:00.677Z,10.35
2023-05-09T17:28:27.742Z,14.48
2023-05-09T17:30:54.740Z,9.68
2023-05-09T17:33:21.862Z,6.38
2023-05-09T17:35:50.151Z,5.82
2023-05-09T17:38:17.752Z,7.57
2023-05-09T17:40:46.103Z,6.10
2023-05-09T17:43:15.865Z,5.28
2023-05-09T17:45:42.963Z,6.03
2023-05-09T17:48:10.018Z,6.00
2023-05-09T17:50:39.669Z,12.25
2023-05-09T17:53:08.802Z,11.85
2023-05-09T17:55:35.974Z,8.80
2023-05-09T17:58:04.696Z,11.05
2023-05-09T18:00:32.692Z,8.98
2023-05-09T18:03:00.955Z,7.32
2023-05-09T18:05:28.664Z,6.38
2023-05-09T18:07:57.352Z,6.32
2023-05-09T18:10:24.740Z,6.75
2023-05-09T18:12:51.707Z,6.50
2023-05-09T18:15:20.552Z,7.55
2023-05-09T18:17:49.291Z,4.90
2023-05-09T18:20:16.646Z,4.85
2023-05-09T18:22:43.782Z,6.00
2023-05-09T18:25:11.466Z,6.63
2023-05-09T18:27:38.458Z,7.05
2023-05-09T18:30:06.795Z,6.80
2023-05-09T18:32:35.365Z,6.45
2023-05-09T18:35:04.159Z,6.93
2023-05-09T18:37:31.224Z,8.05
2023-05-09T18:39:58.452Z,7.93
2023-05-09T18:42:25.431Z,6.88
2023-05-09T18:44:52.458Z,6.43
2023-05-09T18:47:19.492Z,6.63
2023-05-09T18:49:47.957Z,6.78
2023-05-09T18:52:15.472Z,6.65
2023-05-09T18:54:42.518Z,7.07
2023-05-09T18:57:09.943Z,7.63
2023-05-09T18:59:36.910Z,8.88
2023-05-09T19:02:04.004Z,8.35
2023-05-09T19:04:31.259Z,9.98
2023-05-09T19:06:59.805Z,9.40
2023-05-09T19:09:27.111Z,9.05
2023-05-09T19:11:54.101Z,8.27
2023-05-09T19:14:21.114Z,7.93
2023-05-09T19:16:48.240Z,8.07
2023-05-09T19:19:15.785Z,7.13
2023-05-09T19:21:43.057Z,7.15
2023-05-09T19:24:11.357Z,7.55
2023-05-09T19:26:38.761Z,8.00
2023-05-09T19:29:08.255Z,8.32
2023-05-09T19:31:36.500Z,9.48
2023-05-09T19:34:03.576Z,9.50
2023-05-09T19:36:31.087Z,8.35
2023-05-09T19:38:58.078Z,7.97
2023-05-09T19:41:26.389Z,8.05
2023-05-09T19:43:53.640Z,7.15
2023-05-09T19:46:22.281Z,6.93
2023-05-09T19:48:49.348Z,6.82
2023-05-09T19:51:16.318Z,6.18
2023-05-09T19:53:43.392Z,6.70
2023-05-09T19:56:10.360Z,6.95
2023-05-09T19:58:38.769Z,6.50
2023-05-09T20:01:07.125Z,6.38
2023-05-09T20:03:36.908Z,6.65
2023-05-09T20:06:04.590Z,6.82
2023-05-09T20:08:31.650Z,6.28
2023-05-09T20:11:00.126Z,6.63
2023-05-09T20:13:27.799Z,7.15
2023-05-09T20:16:00.236Z,6.60
2023-05-09T20:18:27.265Z,6.43
2023-05-09T20:20:55.076Z,7.20
2023-05-09T20:23:21.992Z,7.07
2023-05-09T20:25:49.013Z,7.72
2023-05-09T20:28:20.177Z,7.50
2023-05-09T20:30:47.772Z,7.45
2023-05-09T20:33:16.343Z,8.02
2023-05-09T20:35:43.923Z,7.70
2023-05-09T20:38:11.121Z,7.78
2023-05-09T20:40:38.514Z,7.85
2023-05-09T20:43:05.570Z,7.55
2023-05-09T20:45:32.811Z,7.07
2023-05-09T20:48:01.686Z,7.85
2023-05-09T20:50:30.140Z,6.95
2023-05-09T20:52:57.067Z,7.65
2023-05-09T20:55:24.086Z,6.43
2023-05-09T20:57:51.028Z,6.97
2023-05-09T21:00:18.316Z,6.47
2023-05-09T21:02:45.618Z,6.80
2023-05-09T21:05:12.589Z,6.43
2023-05-09T21:07:41.245Z,6.93
2023-05-09T21:10:10.424Z,7.55
2023-05-09T21:12:37.559Z,7.38
2023-05-09T21:15:05.528Z,7.00
2023-05-09T21:17:32.604Z,7.15
2023-05-09T21:19:59.678Z,7.43
2023-05-09T21:22:26.637Z,7.63
2023-05-09T21:24:54.992Z,8.05
2023-05-09T21:27:21.982Z,7.78
2023-05-09T21:29:49.868Z,8.35
2023-05-09T21:32:17.176Z,8.02
2023-05-09T21:34:44.301Z,7.53
2023-05-09T21:37:11.296Z,7.63
2023-05-09T21:39:38.224Z,7.47
2023-05-09T21:42:06.714Z,7.90
2023-05-09T21:44:33.767Z,8.30
2023-05-09T21:47:00.871Z,7.53
2023-05-09T21:49:28.837Z,7.75
2023-05-09T21:51:56.211Z,7.43
2023-05-09T21:54:23.328Z,7.63
2023-05-09T21:56:50.378Z,7.72
2023-05-09T21:59:20.822Z,7.28
2023-05-09T22:01:47.952Z,7.43
2023-05-09T22:04:15.442Z,8.18
2023-05-09T22:06:42.861Z,8.00
2023-05-09T22:09:10.087Z,7.75
2023-05-09T22:11:37.880Z,8.60
2023-05-09T22:14:04.971Z,8.68
2023-05-09T22:16:33.319Z,7.75
2023-05-09T22:19:00.258Z,7.47
2023-05-09T22:21:27.741Z,7.57
2023-05-09T22:23:54.743Z,7.32
2023-05-09T22:26:22.308Z,7.55
2023-05-09T22:28:49.858Z,7.40
2023-05-09T22:31:17.197Z,7.47
2023-05-09T22:33:45.554Z,7.93
2023-05-09T22:36:14.524Z,8.48
2023-05-09T22:38:41.590Z,8.60
2023-05-09T22:41:09.155Z,8.13
2023-05-09T22:43:39.147Z,8.32
2023-05-09T22:46:07.164Z,8.00
2023-05-09T22:48:34.280Z,8.27
2023-05-09T22:51:02.714Z,8.48
2023-05-09T22:53:31.036Z,8.02
2023-05-09T22:55:58.162Z,7.50
2023-05-09T22:58:25.244Z,7.45
2023-05-09T23:00:52.464Z,6.88
2023-05-09T23:03:19.686Z,7.85
2023-05-09T23:05:46.688Z,7.85
2023-05-09T23:08:15.135Z,8.13
2023-05-09T23:10:42.151Z,8.10
2023-05-09T23:13:10.416Z,7.65
2023-05-09T23:15:37.394Z,7.18
2023-05-09T23:18:04.924Z,7.78
2023-05-09T23:20:31.899Z,7.10
2023-05-09T23:22:58.885Z,7.50
2023-05-09T23:25:27.452Z,8.05
2023-05-09T23:27:54.972Z,6.80
2023-05-09T23:30:21.908Z,6.68
2023-05-09T23:32:48.895Z,7.25
2023-05-09T23:35:16.131Z,7.18
2023-05-09T23:37:43.188Z,6.90
2023-05-09T23:40:11.211Z,6.57
2023-05-09T23:42:39.507Z,7.63
2023-05-09T23:45:07.703Z,6.50
2023-05-09T23:47:34.675Z,6.55
2023-05-09T23:50:01.808Z,6.07
2023-05-09T23:52:28.945Z,6.50
2023-05-09T23:54:55.903Z,6.72
2023-05-09T23:57:22.975Z,7.00
2023-05-09T23:59:51.530Z,6.57
